sensor_id;sensor_type;location;lat;lon;timestamp;pressure;altitude;pressure_sealevel;temperature;humidity
3260;BME280;68938;48.150;14.004;2023-04-08T00:00:58;98009.94;;;9.78;55.58
3260;BME280;68938;48.150;14.004;2023-04-08T00:03:24;98003.13;;;9.77;55.85
3260;BME280;68938;48.150;14.004;2023-04-08T00:05:52;98006.59;;;9.76;55.86
3260;BME280;68938;48.150;14.004;2023-04-08T00:08:18;98011.56;;;9.81;55.63
3260;BME280;68938;48.150;14.004;2023-04-08T00:10:45;98002.13;;;9.83;55.76
3260;BME280;68938;48.150;14.004;2023-04-08T00:13:12;97996.91;;;9.86;56.14
3260;BME280;68938;48.150;14.004;2023-04-08T00:15:40;97999.47;;;9.86;55.94
3260;BME280;68938;48.150;14.004;2023-04-08T00:18:07;97989.16;;;9.89;55.83
3260;BME280;68938;48.150;14.004;2023-04-08T00:20:34;97990.78;;;9.91;56.18
3260;BME280;68938;48.150;14.004;2023-04-08T00:23:01;97990.00;;;9.88;56.45
3260;BME280;68938;48.150;14.004;2023-04-08T00:25:28;97987.91;;;9.72;56.68
3260;BME280;68938;48.150;14.004;2023-04-08T00:27:55;97992.19;;;9.72;56.85
3260;BME280;68938;48.150;14.004;2023-04-08T00:30:22;97997.25;;;9.73;56.79
3260;BME280;68938;48.150;14.004;2023-04-08T00:32:49;97980.28;;;9.71;56.80
3260;BME280;68938;48.150;14.004;2023-04-08T00:35:16;97996.91;;;9.86;56.60
3260;BME280;68938;48.150;14.004;2023-04-08T00:37:42;98000.09;;;9.94;56.18
3260;BME280;68938;48.150;14.004;2023-04-08T00:40:10;98001.63;;;10.00;56.17
3260;BME280;68938;48.150;14.004;2023-04-08T00:42:37;97993.13;;;9.99;55.89
3260;BME280;68938;48.150;14.004;2023-04-08T00:45:05;98008.31;;;10.05;55.44
3260;BME280;68938;48.150;14.004;2023-04-08T00:47:34;98007.25;;;10.11;55.44
3260;BME280;68938;48.150;14.004;2023-04-08T00:50:02;98011.47;;;10.13;55.54
3260;BME280;68938;48.150;14.004;2023-04-08T00:52:29;98017.41;;;10.15;55.45
3260;BME280;68938;48.150;14.004;2023-04-08T00:54:56;98020.78;;;10.16;55.01
3260;BME280;68938;48.150;14.004;2023-04-08T00:57:23;98008.06;;;10.13;54.98
3260;BME280;68938;48.150;14.004;2023-04-08T00:59:50;98018.09;;;10.20;55.23
3260;BME280;68938;48.150;14.004;2023-04-08T01:05:48;98014.53;;;10.25;55.67
3260;BME280;68938;48.150;14.004;2023-04-08T01:08:20;98005.88;;;10.29;55.57
3260;BME280;68938;48.150;14.004;2023-04-08T01:10:50;98001.72;;;10.26;55.84
3260;BME280;68938;48.150;14.004;2023-04-08T01:13:21;97994.97;;;10.22;56.08
3260;BME280;68938;48.150;14.004;2023-04-08T01:15:49;97992.44;;;10.20;56.20
3260;BME280;68938;48.150;14.004;2023-04-08T01:18:16;97998.38;;;10.23;56.50
3260;BME280;68938;48.150;14.004;2023-04-08T01:20:44;98001.22;;;10.13;56.39
3260;BME280;68938;48.150;14.004;2023-04-08T01:24:37;98006.38;;;10.12;56.34
3260;BME280;68938;48.150;14.004;2023-04-08T01:26:46;98004.59;;;10.15;56.73
3260;BME280;68938;48.150;14.004;2023-04-08T01:29:14;98006.06;;;10.23;56.53
3260;BME280;68938;48.150;14.004;2023-04-08T01:31:42;98006.00;;;10.24;56.10
3260;BME280;68938;48.150;14.004;2023-04-08T01:34:13;98004.28;;;10.25;56.79
3260;BME280;68938;48.150;14.004;2023-04-08T01:36:43;98001.72;;;10.26;56.59
3260;BME280;68938;48.150;14.004;2023-04-08T01:39:11;97989.81;;;10.24;56.77
3260;BME280;68938;48.150;14.004;2023-04-08T01:41:40;97993.97;;;10.28;57.08
3260;BME280;68938;48.150;14.004;2023-04-08T01:44:09;97990.63;;;10.26;57.23
3260;BME280;68938;48.150;14.004;2023-04-08T01:46:38;97985.38;;;10.29;56.97
3260;BME280;68938;48.150;14.004;2023-04-08T01:49:07;97994.69;;;10.33;56.57
3260;BME280;68938;48.150;14.004;2023-04-08T01:51:36;97985.16;;;10.36;56.68
3260;BME280;68938;48.150;14.004;2023-04-08T01:54:04;97987.63;;;10.39;56.43
3260;BME280;68938;48.150;14.004;2023-04-08T01:56:35;97990.13;;;10.41;56.60
3260;BME280;68938;48.150;14.004;2023-04-08T01:59:09;97988.41;;;10.41;57.00
3260;BME280;68938;48.150;14.004;2023-04-08T02:01:40;97984.91;;;10.44;56.48
3260;BME280;68938;48.150;14.004;2023-04-08T02:04:09;97979.81;;;10.42;56.94
3260;BME280;68938;48.150;14.004;2023-04-08T02:06:36;97978.16;;;10.41;57.30
3260;BME280;68938;48.150;14.004;2023-04-08T02:09:03;97978.97;;;10.43;57.23
3260;BME280;68938;48.150;14.004;2023-04-08T02:11:30;97979.81;;;10.42;56.99
3260;BME280;68938;48.150;14.004;2023-04-08T02:13:57;97979.69;;;10.47;56.74
3260;BME280;68938;48.150;14.004;2023-04-08T02:22:01;97990.63;;;10.52;56.08
3260;BME280;68938;48.150;14.004;2023-04-08T02:24:32;97988.06;;;10.52;56.47
3260;BME280;68938;48.150;14.004;2023-04-08T02:27:02;97994.81;;;10.55;56.62
3260;BME280;68938;48.150;14.004;2023-04-08T02:29:31;97992.19;;;10.56;56.50
3260;BME280;68938;48.150;14.004;2023-04-08T02:32:00;97982.16;;;10.50;56.46
3260;BME280;68938;48.150;14.004;2023-04-08T02:34:29;97995.63;;;10.57;56.16
3260;BME280;68938;48.150;14.004;2023-04-08T02:36:56;97996.47;;;10.57;55.90
3260;BME280;68938;48.150;14.004;2023-04-08T02:39:31;97996.31;;;10.62;55.97
3260;BME280;68938;48.150;14.004;2023-04-08T02:41:58;98002.38;;;10.59;55.87
3260;BME280;68938;48.150;14.004;2023-04-08T02:44:25;97997.09;;;10.64;55.56
3260;BME280;68938;48.150;14.004;2023-04-08T02:46:52;97997.94;;;10.64;56.04
3260;BME280;68938;48.150;14.004;2023-04-08T02:49:19;98002.97;;;10.67;55.26
3260;BME280;68938;48.150;14.004;2023-04-08T02:51:46;98003.91;;;10.65;55.90
3260;BME280;68938;48.150;14.004;2023-04-08T02:54:13;98003.84;;;10.66;55.50
3260;BME280;68938;48.150;14.004;2023-04-08T02:56:40;98001.28;;;10.66;55.52
3260;BME280;68938;48.150;14.004;2023-04-08T02:59:07;98000.44;;;10.66;55.52
3260;BME280;68938;48.150;14.004;2023-04-08T03:01:33;98010.66;;;10.67;55.25
3260;BME280;68938;48.150;14.004;2023-04-08T03:04:01;98004.63;;;10.68;55.24
3260;BME280;68938;48.150;14.004;2023-04-08T03:06:27;98006.38;;;10.68;55.35
3260;BME280;68938;48.150;14.004;2023-04-08T03:08:54;98001.28;;;10.66;56.13
3260;BME280;68938;48.150;14.004;2023-04-08T03:11:21;98009.78;;;10.68;55.87
3260;BME280;68938;48.150;14.004;2023-04-08T03:13:48;98008.88;;;10.70;55.68
3260;BME280;68938;48.150;14.004;2023-04-08T03:16:15;98006.28;;;10.71;55.70
3260;BME280;68938;48.150;14.004;2023-04-08T03:18:42;98007.19;;;10.70;55.98
3260;BME280;68938;48.150;14.004;2023-04-08T03:21:09;98018.50;;;10.63;56.62
3260;BME280;68938;48.150;14.004;2023-04-08T03:23:35;98009.97;;;10.62;56.17
3260;BME280;68938;48.150;14.004;2023-04-08T03:26:02;98006.47;;;10.65;55.94
3260;BME280;68938;48.150;14.004;2023-04-08T03:28:29;98008.94;;;10.68;56.03
3260;BME280;68938;48.150;14.004;2023-04-08T03:30:56;98007.28;;;10.67;56.27
3260;BME280;68938;48.150;14.004;2023-04-08T03:33:23;98002.13;;;10.67;56.01
3260;BME280;68938;48.150;14.004;2023-04-08T03:35:50;98007.19;;;10.70;55.94
3260;BME280;68938;48.150;14.004;2023-04-08T03:38:17;98003.72;;;10.71;55.98
3260;BME280;68938;48.150;14.004;2023-04-08T03:40:44;98005.66;;;10.63;56.65
3260;BME280;68938;48.150;14.004;2023-04-08T03:43:10;98009.97;;;10.62;56.65
3260;BME280;68938;48.150;14.004;2023-04-08T03:45:37;98012.53;;;10.62;56.87
3260;BME280;68938;48.150;14.004;2023-04-08T03:48:04;98022.69;;;10.65;56.91
3260;BME280;68938;48.150;14.004;2023-04-08T03:50:32;98027.72;;;10.68;56.92
3260;BME280;68938;48.150;14.004;2023-04-08T03:52:59;98033.84;;;10.64;56.64
3260;BME280;68938;48.150;14.004;2023-04-08T03:55:25;98032.91;;;10.67;56.57
3260;BME280;68938;48.150;14.004;2023-04-08T03:57:52;98038.91;;;10.66;56.13
3260;BME280;68938;48.150;14.004;2023-04-08T04:00:19;98044.94;;;10.65;56.37
3260;BME280;68938;48.150;14.004;2023-04-08T04:02:46;98047.41;;;10.68;56.08
3260;BME280;68938;48.150;14.004;2023-04-08T04:05:13;98046.53;;;10.69;56.68
3260;BME280;68938;48.150;14.004;2023-04-08T04:07:40;98044.84;;;10.68;57.44
3260;BME280;68938;48.150;14.004;2023-04-08T04:10:07;98052.47;;;10.70;57.10
3260;BME280;68938;48.150;14.004;2023-04-08T04:12:34;98055.03;;;10.70;57.10
3260;BME280;68938;48.150;14.004;2023-04-08T04:15:02;98060.16;;;10.71;56.85
3260;BME280;68938;48.150;14.004;2023-04-08T04:17:29;98063.69;;;10.67;57.36
3260;BME280;68938;48.150;14.004;2023-04-08T04:19:56;98067.09;;;10.67;57.34
3260;BME280;68938;48.150;14.004;2023-04-08T04:22:23;98062.91;;;10.65;57.26
3260;BME280;68938;48.150;14.004;2023-04-08T04:24:49;98066.16;;;10.70;57.13
3260;BME280;68938;48.150;14.004;2023-04-08T04:27:16;98069.50;;;10.72;57.04
3260;BME280;68938;48.150;14.004;2023-04-08T04:29:43;98071.41;;;10.67;57.30
3260;BME280;68938;48.150;14.004;2023-04-08T04:32:10;98076.63;;;10.64;57.73
3260;BME280;68938;48.150;14.004;2023-04-08T04:34:37;98077.78;;;10.54;58.04
3260;BME280;68938;48.150;14.004;2023-04-08T04:37:04;98076.00;;;10.56;57.63
3260;BME280;68938;48.150;14.004;2023-04-08T04:39:31;98089.63;;;10.58;57.31
3260;BME280;68938;48.150;14.004;2023-04-08T04:41:58;98091.34;;;10.57;57.28
3260;BME280;68938;48.150;14.004;2023-04-08T04:44:25;98100.81;;;10.55;57.80
3260;BME280;68938;48.150;14.004;2023-04-08T04:46:51;98099.91;;;10.56;57.86
3260;BME280;68938;48.150;14.004;2023-04-08T04:49:18;98091.34;;;10.57;58.31
3260;BME280;68938;48.150;14.004;2023-04-08T04:51:45;98088.81;;;10.56;58.29
3260;BME280;68938;48.150;14.004;2023-04-08T04:54:12;98081.94;;;10.58;58.05
3260;BME280;68938;48.150;14.004;2023-04-08T04:56:39;98087.00;;;10.59;57.83
3260;BME280;68938;48.150;14.004;2023-04-08T04:59:06;98113.78;;;10.51;58.68
3260;BME280;68938;48.150;14.004;2023-04-08T05:01:33;98110.28;;;10.53;58.45
3260;BME280;68938;48.150;14.004;2023-04-08T05:04:00;98100.88;;;10.54;58.32
3260;BME280;68938;48.150;14.004;2023-04-08T05:06:27;98110.88;;;10.61;58.15
3260;BME280;68938;48.150;14.004;2023-04-08T05:08:54;98115.03;;;10.65;58.06
3260;BME280;68938;48.150;14.004;2023-04-08T05:11:21;98119.28;;;10.66;57.67
3260;BME280;68938;48.150;14.004;2023-04-08T05:13:48;98125.13;;;10.72;58.19
3260;BME280;68938;48.150;14.004;2023-04-08T05:16:15;98116.59;;;10.71;57.72
3260;BME280;68938;48.150;14.004;2023-04-08T05:18:42;98125.78;;;10.77;57.24
3260;BME280;68938;48.150;14.004;2023-04-08T05:21:09;98119.00;;;10.76;57.06
3260;BME280;68938;48.150;14.004;2023-04-08T05:23:36;98128.34;;;10.78;56.85
3260;BME280;68938;48.150;14.004;2023-04-08T05:26:06;98133.50;;;10.77;57.03
3260;BME280;68938;48.150;14.004;2023-04-08T05:28:34;98130.94;;;10.77;56.99
3260;BME280;68938;48.150;14.004;2023-04-08T05:31:01;98137.88;;;10.73;57.61
3260;BME280;68938;48.150;14.004;2023-04-08T05:33:28;98143.91;;;10.72;58.53
3260;BME280;68938;48.150;14.004;2023-04-08T05:35:55;98143.06;;;10.72;58.40
3260;BME280;68938;48.150;14.004;2023-04-08T05:38:22;98146.75;;;10.63;58.95
3260;BME280;68938;48.150;14.004;2023-04-08T05:40:49;98153.50;;;10.65;59.03
3260;BME280;68938;48.150;14.004;2023-04-08T05:43:16;98159.53;;;10.64;59.18
3260;BME280;68938;48.150;14.004;2023-04-08T05:45:43;98165.66;;;10.60;60.09
3260;BME280;68938;48.150;14.004;2023-04-08T05:48:10;98164.97;;;10.54;60.17
3260;BME280;68938;48.150;14.004;2023-04-08T05:50:36;98175.41;;;10.48;60.50
3260;BME280;68938;48.150;14.004;2023-04-08T05:53:03;98180.47;;;10.51;60.45
3260;BME280;68938;48.150;14.004;2023-04-08T05:55:30;98176.22;;;10.50;61.12
3260;BME280;68938;48.150;14.004;2023-04-08T05:57:57;98177.00;;;10.52;61.17
3260;BME280;68938;48.150;14.004;2023-04-08T06:00:24;98179.66;;;10.49;60.71
3260;BME280;68938;48.150;14.004;2023-04-08T06:02:51;98172.84;;;10.48;61.49
3260;BME280;68938;48.150;14.004;2023-04-08T06:05:18;98182.34;;;10.44;61.68
3260;BME280;68938;48.150;14.004;2023-04-08T06:07:45;98183.38;;;10.38;62.45
3260;BME280;68938;48.150;14.004;2023-04-08T06:10:12;98181.69;;;10.37;62.70
3260;BME280;68938;48.150;14.004;2023-04-08T06:12:39;98192.00;;;10.36;62.43
3260;BME280;68938;48.150;14.004;2023-04-08T06:15:07;98197.88;;;10.39;62.86
3260;BME280;68938;48.150;14.004;2023-04-08T06:17:35;98203.75;;;10.43;63.64
3260;BME280;68938;48.150;14.004;2023-04-08T06:20:05;98179.13;;;10.37;63.24
3260;BME280;68938;48.150;14.004;2023-04-08T06:22:32;98198.44;;;10.49;62.97
3260;BME280;68938;48.150;14.004;2023-04-08T06:24:59;98207.78;;;10.52;63.15
3260;BME280;68938;48.150;14.004;2023-04-08T06:27:26;98200.09;;;10.52;63.30
3260;BME280;68938;48.150;14.004;2023-04-08T06:29:53;98204.22;;;10.57;63.39
3260;BME280;68938;48.150;14.004;2023-04-08T06:32:21;98199.78;;;10.62;63.54
3260;BME280;68938;48.150;14.004;2023-04-08T06:34:48;98204.88;;;10.64;63.47
3260;BME280;68938;48.150;14.004;2023-04-08T06:37:15;98206.47;;;10.68;63.64
3260;BME280;68938;48.150;14.004;2023-04-08T06:39:42;98208.97;;;10.70;63.34
3260;BME280;68938;48.150;14.004;2023-04-08T06:42:09;98212.25;;;10.75;63.07
3260;BME280;68938;48.150;14.004;2023-04-08T06:44:35;98211.31;;;10.77;63.11
3260;BME280;68938;48.150;14.004;2023-04-08T06:47:02;98205.31;;;10.77;63.03
3260;BME280;68938;48.150;14.004;2023-04-08T06:49:29;98205.47;;;10.72;62.96
3260;BME280;68938;48.150;14.004;2023-04-08T06:51:56;98213.25;;;10.69;63.53
3260;BME280;68938;48.150;14.004;2023-04-08T06:54:23;98210.75;;;10.67;63.92
3260;BME280;68938;48.150;14.004;2023-04-08T06:56:50;98211.72;;;10.63;63.97
3260;BME280;68938;48.150;14.004;2023-04-08T06:59:16;98220.19;;;10.65;63.63
3260;BME280;68938;48.150;14.004;2023-04-08T07:01:43;98220.31;;;10.31;63.25
3260;BME280;68938;48.150;14.004;2023-04-08T07:04:10;98226.34;;;10.30;63.67
3260;BME280;68938;48.150;14.004;2023-04-08T07:06:37;98221.03;;;10.36;63.48
3260;BME280;68938;48.150;14.004;2023-04-08T07:09:04;98222.56;;;10.43;63.29
3260;BME280;68938;48.150;14.004;2023-04-08T07:11:31;98224.47;;;10.35;62.45
3260;BME280;68938;48.150;14.004;2023-04-08T07:13:58;98230.63;;;10.30;62.71
3260;BME280;68938;48.150;14.004;2023-04-08T07:16:25;98224.94;;;10.17;62.46
3260;BME280;68938;48.150;14.004;2023-04-08T07:18:52;98234.38;;;10.16;62.55
3260;BME280;68938;48.150;14.004;2023-04-08T07:21:19;98237.31;;;10.01;62.93
3260;BME280;68938;48.150;14.004;2023-04-08T07:23:46;98228.03;;;9.97;62.74
3260;BME280;68938;48.150;14.004;2023-04-08T07:26:12;98235.63;;;10.02;63.38
3260;BME280;68938;48.150;14.004;2023-04-08T07:28:39;98234.66;;;10.06;63.56
3260;BME280;68938;48.150;14.004;2023-04-08T07:31:16;98238.06;;;10.05;63.66
3260;BME280;68938;48.150;14.004;2023-04-08T07:33:44;98244.09;;;10.04;64.00
3260;BME280;68938;48.150;14.004;2023-04-08T07:36:12;98251.31;;;9.88;64.48
3260;BME280;68938;48.150;14.004;2023-04-08T07:38:40;98251.50;;;9.82;64.83
3260;BME280;68938;48.150;14.004;2023-04-08T07:41:07;98259.59;;;9.65;65.31
3260;BME280;68938;48.150;14.004;2023-04-08T07:43:34;98257.06;;;9.26;65.24
3260;BME280;68938;48.150;14.004;2023-04-08T07:46:04;98265.44;;;9.33;65.11
3260;BME280;68938;48.150;14.004;2023-04-08T07:48:33;98270.72;;;9.27;65.70
3260;BME280;68938;48.150;14.004;2023-04-08T07:51:05;98271.31;;;9.38;66.03
3260;BME280;68938;48.150;14.004;2023-04-08T07:53:38;98267.66;;;9.48;65.61
3260;BME280;68938;48.150;14.004;2023-04-08T07:56:13;98266.91;;;9.44;65.78
3260;BME280;68938;48.150;14.004;2023-04-08T07:58:41;98274.41;;;9.52;65.47
3260;BME280;68938;48.150;14.004;2023-04-08T08:01:19;98268.47;;;9.50;65.64
3260;BME280;68938;48.150;14.004;2023-04-08T08:03:49;98277.06;;;9.47;65.71
3260;BME280;68938;48.150;14.004;2023-04-08T08:06:18;98275.50;;;9.42;65.93
3260;BME280;68938;48.150;14.004;2023-04-08T08:08:44;98283.38;;;9.33;65.80
3260;BME280;68938;48.150;14.004;2023-04-08T08:11:12;98274.13;;;9.27;66.20
3260;BME280;68938;48.150;14.004;2023-04-08T08:13:39;98282.44;;;9.37;66.71
3260;BME280;68938;48.150;14.004;2023-04-08T08:16:05;98278.13;;;9.39;65.86
3260;BME280;68938;48.150;14.004;2023-04-08T08:18:33;98272.94;;;9.42;65.86
3260;BME280;68938;48.150;14.004;2023-04-08T08:21:01;98286.16;;;9.23;65.82
3260;BME280;68938;48.150;14.004;2023-04-08T08:23:28;98286.00;;;9.30;66.36
3260;BME280;68938;48.150;14.004;2023-04-08T08:25:59;98291.41;;;9.17;66.74
3260;BME280;68938;48.150;14.004;2023-04-08T08:28:27;98289.75;;;9.15;66.83
3260;BME280;68938;48.150;14.004;2023-04-08T08:30:54;98288.13;;;9.11;67.53
3260;BME280;68938;48.150;14.004;2023-04-08T08:33:21;98292.34;;;9.13;66.74
3260;BME280;68938;48.150;14.004;2023-04-08T08:35:48;98287.28;;;9.10;67.02
3260;BME280;68938;48.150;14.004;2023-04-08T08:38:15;98291.50;;;9.13;67.23
3260;BME280;68938;48.150;14.004;2023-04-08T08:40:42;98294.19;;;9.07;67.86
3260;BME280;68938;48.150;14.004;2023-04-08T08:43:10;98294.16;;;9.08;68.18
3260;BME280;68938;48.150;14.004;2023-04-08T08:45:41;98291.41;;;9.16;67.60
3260;BME280;68938;48.150;14.004;2023-04-08T08:48:08;98301.16;;;8.98;67.89
3260;BME280;68938;48.150;14.004;2023-04-08T08:50:35;98308.13;;;8.92;68.56
3260;BME280;68938;48.150;14.004;2023-04-08T08:53:02;98308.28;;;8.86;68.29
3260;BME280;68938;48.150;14.004;2023-04-08T08:55:31;98309.44;;;9.11;68.06
3260;BME280;68938;48.150;14.004;2023-04-08T08:58:18;98311.06;;;9.15;67.94
3260;BME280;68938;48.150;14.004;2023-04-08T09:00:45;98315.03;;;9.30;68.52
3260;BME280;68938;48.150;14.004;2023-04-08T09:03:25;98320.63;;;9.46;68.04
3260;BME280;68938;48.150;14.004;2023-04-08T09:05:59;98312.91;;;9.47;67.85
3260;BME280;68938;48.150;14.004;2023-04-08T09:08:34;98326.88;;;9.34;66.50
3260;BME280;68938;48.150;14.004;2023-04-08T09:11:17;98329.44;;;9.34;66.98
3260;BME280;68938;48.150;14.004;2023-04-08T09:13:46;98329.50;;;9.30;66.66
3260;BME280;68938;48.150;14.004;2023-04-08T09:16:17;98321.91;;;9.27;67.25
3260;BME280;68938;48.150;14.004;2023-04-08T09:18:46;98329.19;;;9.06;68.25
3260;BME280;68938;48.150;14.004;2023-04-08T09:21:17;98336.84;;;9.06;68.19
3260;BME280;68938;48.150;14.004;2023-04-08T09:23:49;98337.34;;;9.22;67.88
3260;BME280;68938;48.150;14.004;2023-04-08T09:26:22;98338.69;;;8.99;67.31
3260;BME280;68938;48.150;14.004;2023-04-08T09:31:54;98341.31;;;8.96;68.38
3260;BME280;68938;48.150;14.004;2023-04-08T09:34:23;98347.16;;;9.01;68.28
3260;BME280;68938;48.150;14.004;2023-04-08T09:36:52;98348.16;;;8.94;67.82
3260;BME280;68938;48.150;14.004;2023-04-08T09:39:19;98352.44;;;8.94;68.93
3260;BME280;68938;48.150;14.004;2023-04-08T09:41:48;98356.44;;;9.06;68.35
3260;BME280;68938;48.150;14.004;2023-04-08T09:44:17;98346.22;;;9.07;68.25
3260;BME280;68938;48.150;14.004;2023-04-08T09:52:06;98353.78;;;9.12;68.27
3260;BME280;68938;48.150;14.004;2023-04-08T09:55:01;98348.72;;;9.09;68.19
3260;BME280;68938;48.150;14.004;2023-04-08T09:57:56;98362.78;;;9.30;68.21
3260;BME280;68938;48.150;14.004;2023-04-08T10:00:29;98349.56;;;9.49;67.96
3260;BME280;68938;48.150;14.004;2023-04-08T10:05:52;98352.03;;;9.54;66.27
3260;BME280;68938;48.150;14.004;2023-04-08T10:08:20;98356.91;;;9.65;65.74
3260;BME280;68938;48.150;14.004;2023-04-08T10:10:48;98354.81;;;9.43;65.52
3260;BME280;68938;48.150;14.004;2023-04-08T10:13:16;98350.38;;;9.52;66.90
3260;BME280;68938;48.150;14.004;2023-04-08T10:15:44;98355.38;;;9.58;66.44
3260;BME280;68938;48.150;14.004;2023-04-08T10:23:05;98350.31;;;9.55;66.03
3260;BME280;68938;48.150;14.004;2023-04-08T10:25:37;98343.03;;;9.75;66.50
3260;BME280;68938;48.150;14.004;2023-04-08T10:30:51;98353.34;;;9.70;66.51
3260;BME280;68938;48.150;14.004;2023-04-08T10:33:24;98349.69;;;9.82;65.49
3260;BME280;68938;48.150;14.004;2023-04-08T10:36:10;98348.72;;;9.86;66.09
3260;BME280;68938;48.150;14.004;2023-04-08T10:38:38;98345.28;;;9.87;65.12
3260;BME280;68938;48.150;14.004;2023-04-08T10:41:05;98350.94;;;9.64;65.51
3260;BME280;68938;48.150;14.004;2023-04-08T10:43:33;98351.84;;;9.62;65.20
3260;BME280;68938;48.150;14.004;2023-04-08T10:46:02;98354.78;;;9.45;66.47
3260;BME280;68938;48.150;14.004;2023-04-08T10:48:29;98356.41;;;9.49;65.61
3260;BME280;68938;48.150;14.004;2023-04-08T10:53:33;98349.53;;;9.88;64.95
3260;BME280;68938;48.150;14.004;2023-04-08T10:56:12;98351.22;;;9.89;64.37
3260;BME280;68938;48.150;14.004;2023-04-08T10:58:48;98350.31;;;9.92;64.55
3260;BME280;68938;48.150;14.004;2023-04-08T11:01:16;98348.66;;;9.88;63.96
3260;BME280;68938;48.150;14.004;2023-04-08T11:03:44;98350.69;;;9.75;65.06
3260;BME280;68938;48.150;14.004;2023-04-08T11:06:11;98348.47;;;9.97;65.12
3260;BME280;68938;48.150;14.004;2023-04-08T11:08:38;98347.25;;;10.12;63.72
3260;BME280;68938;48.150;14.004;2023-04-08T11:11:05;98343.00;;;10.11;63.84
3260;BME280;68938;48.150;14.004;2023-04-08T11:13:34;98343.16;;;10.05;63.20
3260;BME280;68938;48.150;14.004;2023-04-08T11:16:07;98350.34;;;10.25;63.14
3260;BME280;68938;48.150;14.004;2023-04-08T11:18:44;98350.34;;;10.25;62.97
3260;BME280;68938;48.150;14.004;2023-04-08T11:21:11;98349.09;;;10.07;63.42
3260;BME280;68938;48.150;14.004;2023-04-08T11:23:38;98352.50;;;10.07;63.07
3260;BME280;68938;48.150;14.004;2023-04-08T11:26:05;98346.44;;;10.10;63.80
3260;BME280;68938;48.150;14.004;2023-04-08T11:28:33;98344.47;;;10.21;63.34
3260;BME280;68938;48.150;14.004;2023-04-08T11:31:01;98344.44;;;10.23;62.73
3260;BME280;68938;48.150;14.004;2023-04-08T11:33:31;98342.47;;;10.34;62.03
3260;BME280;68938;48.150;14.004;2023-04-08T11:36:01;98350.31;;;10.28;63.31
3260;BME280;68938;48.150;14.004;2023-04-08T11:38:28;98336.66;;;10.27;62.51
3260;BME280;68938;48.150;14.004;2023-04-08T11:40:57;98356.50;;;10.19;63.06
3260;BME280;68938;48.150;14.004;2023-04-08T11:43:25;98349.41;;;10.29;62.89
3260;BME280;68938;48.150;14.004;2023-04-08T11:45:52;98356.69;;;10.46;62.01
3260;BME280;68938;48.150;14.004;2023-04-08T11:48:19;98351.53;;;10.47;62.37
3260;BME280;68938;48.150;14.004;2023-04-08T11:50:45;98346.00;;;10.30;61.87
3260;BME280;68938;48.150;14.004;2023-04-08T11:53:20;98345.91;;;10.33;62.62
3260;BME280;68938;48.150;14.004;2023-04-08T11:55:48;98349.94;;;10.41;61.99
3260;BME280;68938;48.150;14.004;2023-04-08T11:58:14;98349.16;;;10.39;61.92
3260;BME280;68938;48.150;14.004;2023-04-08T12:00:42;98352.38;;;10.48;62.12
3260;BME280;68938;48.150;14.004;2023-04-08T12:03:10;98348.81;;;10.53;61.51
3260;BME280;68938;48.150;14.004;2023-04-08T12:05:38;98346.50;;;10.42;61.58
3260;BME280;68938;48.150;14.004;2023-04-08T12:08:05;98356.28;;;10.28;62.77
3260;BME280;68938;48.150;14.004;2023-04-08T12:10:31;98357.00;;;10.33;62.79
3260;BME280;68938;48.150;14.004;2023-04-08T12:12:58;98351.75;;;10.38;62.54
3260;BME280;68938;48.150;14.004;2023-04-08T12:15:25;98353.44;;;10.39;62.79
3260;BME280;68938;48.150;14.004;2023-04-08T12:17:52;98346.50;;;10.42;62.95
3260;BME280;68938;48.150;14.004;2023-04-08T12:20:19;98356.16;;;10.33;62.82
3260;BME280;68938;48.150;14.004;2023-04-08T12:22:46;98361.22;;;10.36;63.69
3260;BME280;68938;48.150;14.004;2023-04-08T12:25:13;98355.06;;;10.41;62.81
3260;BME280;68938;48.150;14.004;2023-04-08T12:27:40;98352.50;;;10.43;62.15
3260;BME280;68938;48.150;14.004;2023-04-08T12:30:08;98359.28;;;10.44;63.67
3260;BME280;68938;48.150;14.004;2023-04-08T12:32:35;98348.91;;;10.49;62.82
3260;BME280;68938;48.150;14.004;2023-04-08T12:35:02;98364.28;;;10.50;62.27
3260;BME280;68938;48.150;14.004;2023-04-08T12:37:29;98363.22;;;10.57;62.60
3260;BME280;68938;48.150;14.004;2023-04-08T12:39:56;98367.53;;;10.57;63.19
3260;BME280;68938;48.150;14.004;2023-04-08T12:42:22;98359.00;;;10.55;62.76
3260;BME280;68938;48.150;14.004;2023-04-08T12:44:49;98368.19;;;10.63;62.59
3260;BME280;68938;48.150;14.004;2023-04-08T12:47:16;98370.59;;;10.70;63.19
3260;BME280;68938;48.150;14.004;2023-04-08T12:49:43;98363.56;;;10.76;63.09
3260;BME280;68938;48.150;14.004;2023-04-08T12:52:13;98365.28;;;10.77;62.52
3260;BME280;68938;48.150;14.004;2023-04-08T12:54:40;98367.84;;;10.77;62.73
3260;BME280;68938;48.150;14.004;2023-04-08T12:57:06;98357.50;;;10.80;62.40
3260;BME280;68938;48.150;14.004;2023-04-08T12:59:33;98364.13;;;10.87;61.96
3260;BME280;68938;48.150;14.004;2023-04-08T13:02:00;98365.72;;;10.91;62.21
3260;BME280;68938;48.150;14.004;2023-04-08T13:04:27;98357.28;;;10.86;61.10
3260;BME280;68938;48.150;14.004;2023-04-08T13:06:54;98357.19;;;10.91;61.73
3260;BME280;68938;48.150;14.004;2023-04-08T13:09:21;98358.19;;;10.85;62.03
3260;BME280;68938;48.150;14.004;2023-04-08T13:11:48;98359.56;;;10.97;61.60
3260;BME280;68938;48.150;14.004;2023-04-08T13:14:15;98374.88;;;11.00;62.06
3260;BME280;68938;48.150;14.004;2023-04-08T13:16:42;98359.75;;;10.91;60.17
3260;BME280;68938;48.150;14.004;2023-04-08T13:19:09;98371.63;;;10.94;60.31
3260;BME280;68938;48.150;14.004;2023-04-08T13:21:36;98377.66;;;10.93;60.38
3260;BME280;68938;48.150;14.004;2023-04-08T13:24:03;98374.88;;;11.00;60.08
3260;BME280;68938;48.150;14.004;2023-04-08T13:26:30;98369.16;;;10.90;60.87
3260;BME280;68938;48.150;14.004;2023-04-08T13:28:57;98372.22;;;11.03;59.96
3260;BME280;68938;48.150;14.004;2023-04-08T13:31:24;98368.75;;;11.06;59.21
3260;BME280;68938;48.150;14.004;2023-04-08T13:33:51;98376.28;;;11.12;60.36
3260;BME280;68938;48.150;14.004;2023-04-08T13:36:22;98380.28;;;11.22;60.35
3260;BME280;68938;48.150;14.004;2023-04-08T13:38:49;98380.72;;;11.36;60.40